Terminal Aerodrome Forecast
Issued by NWS Wilmington, OH

Home | Current Version | Previous Version | Text Only | Print | Product List | Glossary On
Versions: 1 2 3 4 5 6 7 8 9 10 11 12 13 14 15 16 17 18 19 20 21 22 23 24 25 26 27 28 29 30
000
FTUS41 KILN 271500 AAB
TAFCVG
TAF AMD
KCVG 271522Z 2715/2818 30012G18KT P6SM BKN035
      TEMPO 2715/2718 5SM -SHSN OVC022
     FM280100 30009KT P6SM BKN025
     FM280600 VRB04KT P6SM SCT025
     FM281200 19006KT P6SM SCT025 BKN120=

USA.gov is the U.S. government's official web portal to all federal, state and local government web resources and services.